East Hampstead, New Hampshire
Current Conditions -  °F | °C
As of 5:54 PM on Monday 24 Nov 2014 (Local Time) from KLWM Reporting Station
Overcast Overcast  
Wind Chill: 18°   Ceiling: 2200
Heat Index: 18°   Visibility: 10mi
Dew Point: 14°   Wind: 17mph
Humidity: 80%   Direction: 210°SSW
Pressure: 29.6"   Gusts: 24mph
Location:  42.89°N, 71.14°W
Report Text: KLWM 242254Z 21015G21KT 10SM BKN022 OVC029 18/14 A2960 RMK AO2 SLP023 T01780144
Loading
Personal Weather Stations






























Interactive Weather Map New forecast layout! Learn more

10-Day Weather Forecast

Advertisements
Track Severe Weather on mobile